createdAt,value
2022-11-12T00:00:11.823Z,8.88
2022-11-12T00:05:13.239Z,9.80
2022-11-12T00:10:14.828Z,9.05
2022-11-12T00:15:16.231Z,8.80
2022-11-12T00:20:17.764Z,9.77
2022-11-12T00:25:19.192Z,8.82
2022-11-12T00:30:20.612Z,9.68
2022-11-12T00:35:22.087Z,9.10
2022-11-12T00:40:23.623Z,9.20
2022-11-12T00:45:25.174Z,9.93
2022-11-12T00:50:26.692Z,9.85
2022-11-12T00:55:28.104Z,8.73
2022-11-12T01:00:29.607Z,8.88
2022-11-12T01:05:32.672Z,8.85
2022-11-12T01:10:35.473Z,8.80
2022-11-12T01:15:41.846Z,9.20
2022-11-12T01:20:43.219Z,9.00
2022-11-12T01:25:44.601Z,9.65
2022-11-12T01:30:45.966Z,8.98
2022-11-12T01:35:47.409Z,10.18
2022-11-12T01:40:48.989Z,10.52
2022-11-12T01:45:51.138Z,10.13
2022-11-12T01:50:52.815Z,10.18
2022-11-12T01:55:54.920Z,10.70
2022-11-12T02:00:57.563Z,10.20
2022-11-12T02:06:00.857Z,10.10
2022-11-12T02:11:16.098Z,9.90
2022-11-12T02:16:17.518Z,10.07
2022-11-12T02:21:19.690Z,11.20
2022-11-12T02:26:21.114Z,10.13
2022-11-12T02:31:22.516Z,10.35
2022-11-12T02:36:24.555Z,15.00
2022-11-12T02:41:26.181Z,14.50
2022-11-12T02:46:27.651Z,13.85
2022-11-12T02:51:29.047Z,12.52
2022-11-12T02:56:30.456Z,12.50
2022-11-12T03:01:31.997Z,12.48
2022-11-12T03:06:33.583Z,12.63
2022-11-12T03:11:35.082Z,16.17
2022-11-12T03:16:36.542Z,18.65
2022-11-12T03:21:37.980Z,19.13
2022-11-12T03:26:39.438Z,21.90
2022-11-12T03:31:41.291Z,21.70
2022-11-12T03:36:42.650Z,21.88
2022-11-12T03:41:44.013Z,22.55
2022-11-12T03:46:45.367Z,22.77
2022-11-12T03:51:46.936Z,22.25
2022-11-12T03:56:48.314Z,21.05
2022-11-12T04:01:49.724Z,22.55
2022-11-12T04:07:09.629Z,22.85
2022-11-12T04:12:29.786Z,22.00
2022-11-12T04:17:49.707Z,21.25
2022-11-12T04:22:51.140Z,20.50
2022-11-12T04:27:52.509Z,21.75
2022-11-12T04:32:54.907Z,18.90
2022-11-12T04:37:56.693Z,18.88
2022-11-12T04:43:16.627Z,18.52
2022-11-12T04:48:18.437Z,19.17
2022-11-12T04:53:20.139Z,20.77
2022-11-12T04:58:21.588Z,21.42
2022-11-12T05:03:23.046Z,19.83
2022-11-12T05:08:24.701Z,19.60
2022-11-12T05:13:30.070Z,19.45
2022-11-12T05:18:31.560Z,20.52
2022-11-12T05:23:33.014Z,21.98
2022-11-12T05:28:34.573Z,23.83
2022-11-12T05:33:36.015Z,24.77
2022-11-12T05:38:39.122Z,24.63
2022-11-12T05:43:40.710Z,26.80
2022-11-12T05:48:42.306Z,28.05
2022-11-12T05:53:43.726Z,27.95
2022-11-12T05:58:45.105Z,26.63
2022-11-12T06:03:46.685Z,29.55
2022-11-12T06:08:48.154Z,27.58
2022-11-12T06:13:49.543Z,25.38
2022-11-12T06:18:51.251Z,27.63
2022-11-12T06:23:56.859Z,26.40
2022-11-12T06:28:58.260Z,27.00
2022-11-12T06:34:03.342Z,24.45
2022-11-12T06:39:04.847Z,23.52
2022-11-12T06:44:06.357Z,22.15
2022-11-12T06:49:08.191Z,22.92
2022-11-12T06:54:09.571Z,22.80
2022-11-12T06:59:11.071Z,21.60
2022-11-12T07:04:12.610Z,22.80
2022-11-12T07:09:14.069Z,21.77
2022-11-12T07:14:15.552Z,22.13
2022-11-12T07:19:17.120Z,21.35
2022-11-12T07:24:18.550Z,21.02
2022-11-12T07:29:35.594Z,20.38
2022-11-12T07:34:44.272Z,19.75
2022-11-12T07:39:45.799Z,19.40
2022-11-12T07:44:47.365Z,18.60
2022-11-12T07:49:48.803Z,20.55
2022-11-12T07:54:50.592Z,21.63
2022-11-12T07:59:52.447Z,19.23
2022-11-12T08:04:53.966Z,21.27
2022-11-12T08:09:55.580Z,21.83
2022-11-12T08:14:57.049Z,22.42
2022-11-12T08:19:58.774Z,23.63
2022-11-12T08:25:00.156Z,23.30
2022-11-12T08:30:02.091Z,26.55
2022-11-12T08:35:03.590Z,24.92
2022-11-12T08:40:05.228Z,27.45
2022-11-12T08:45:07.030Z,26.58
2022-11-12T08:50:08.667Z,25.88
2022-11-12T08:55:10.142Z,24.98
2022-11-12T09:00:12.550Z,27.52
2022-11-12T09:05:13.967Z,28.90
2022-11-12T09:10:15.360Z,28.10
2022-11-12T09:20:38.198Z,30.48
2022-11-12T09:25:41.454Z,27.83
2022-11-12T09:30:46.640Z,27.27
2022-11-12T09:35:48.762Z,27.80
2022-11-12T09:40:52.960Z,27.83
2022-11-12T09:46:21.466Z,26.95
2022-11-12T09:51:40.686Z,26.65
2022-11-12T09:56:42.140Z,28.95
2022-11-12T10:01:58.379Z,29.52
2022-11-12T10:06:59.916Z,28.42
2022-11-12T10:12:32.521Z,28.52
2022-11-12T10:17:47.820Z,25.17
2022-11-12T10:22:58.491Z,24.15
2022-11-12T10:28:02.840Z,25.13
2022-11-12T10:33:04.382Z,24.05
2022-11-12T10:38:08.858Z,21.63
2022-11-12T10:43:16.320Z,20.90
2022-11-12T10:48:30.684Z,20.08
2022-11-12T10:53:34.451Z,19.63
2022-11-12T10:58:35.817Z,22.55
2022-11-12T11:03:44.819Z,22.17
2022-11-12T11:08:50.434Z,21.17
2022-11-12T11:13:55.833Z,21.35
2022-11-12T11:19:05.240Z,20.52
2022-11-12T11:24:12.581Z,21.42
2022-11-12T11:29:32.598Z,20.25
2022-11-12T11:34:49.313Z,20.42
2022-11-12T11:40:01.599Z,19.17
2022-11-12T11:45:09.879Z,20.15
2022-11-12T11:50:16.931Z,20.52
2022-11-12T11:55:28.499Z,19.63
2022-11-12T12:00:48.988Z,20.90
2022-11-12T12:05:50.357Z,22.73
2022-11-12T12:11:12.347Z,22.13
2022-11-12T12:16:33.733Z,21.95
2022-11-12T12:21:36.055Z,20.15
2022-11-12T12:26:40.561Z,20.63
2022-11-12T12:31:45.526Z,20.73
2022-11-12T12:36:49.640Z,20.35
2022-11-12T12:42:02.020Z,19.88
2022-11-12T12:47:03.731Z,21.17
2022-11-12T12:52:07.161Z,20.27
2022-11-12T12:57:27.242Z,19.63
2022-11-12T13:02:28.697Z,18.50
2022-11-12T13:07:41.889Z,18.80
2022-11-12T13:13:02.901Z,16.77
2022-11-12T13:18:12.832Z,16.58
2022-11-12T13:23:57.255Z,15.23
2022-11-12T13:29:17.482Z,16.27
2022-11-12T13:34:28.958Z,15.52
2022-11-12T13:39:32.426Z,16.35
2022-11-12T13:44:35.255Z,14.65
2022-11-12T13:49:37.128Z,16.33
2022-11-12T13:54:39.019Z,15.77
2022-11-12T13:59:40.788Z,15.52
2022-11-12T14:04:42.306Z,15.45
2022-11-12T14:10:07.026Z,16.20
2022-11-12T14:15:20.747Z,15.15
2022-11-12T14:20:27.825Z,14.63
2022-11-12T14:25:29.366Z,15.90
2022-11-12T14:30:32.189Z,14.73
2022-11-12T14:35:34.965Z,14.82
2022-11-12T14:40:37.683Z,14.02
2022-11-12T14:45:47.107Z,15.07
2022-11-12T14:50:51.046Z,14.32
2022-11-12T14:55:53.774Z,13.82
2022-11-12T15:00:57.603Z,14.27
2022-11-12T15:06:11.855Z,14.23
2022-11-12T15:11:20.421Z,12.60
2022-11-12T15:21:26.059Z,13.60
2022-11-12T15:26:33.507Z,13.75
2022-11-12T15:31:43.104Z,13.60
2022-11-12T15:36:44.684Z,13.77
2022-11-12T15:41:46.425Z,13.02
2022-11-12T15:46:47.905Z,14.02
2022-11-12T15:51:49.476Z,12.98
2022-11-12T15:56:51.134Z,14.27
2022-11-12T16:01:52.833Z,14.30
2022-11-12T16:06:54.384Z,14.40
2022-11-12T16:11:57.513Z,15.05
2022-11-12T16:16:59.006Z,13.43
2022-11-12T16:22:01.039Z,13.63
2022-11-12T16:27:07.676Z,13.75
2022-11-12T16:32:13.031Z,11.70
2022-11-12T16:37:14.660Z,12.60
2022-11-12T16:42:16.072Z,13.82
2022-11-12T16:47:17.499Z,14.27
2022-11-12T16:52:19.089Z,13.88
2022-11-12T16:57:20.501Z,14.10
2022-11-12T17:02:22.423Z,13.82
2022-11-12T17:07:24.353Z,15.32
2022-11-12T17:12:27.621Z,16.45
2022-11-12T17:17:29.145Z,15.88
2022-11-12T17:22:31.440Z,14.95
2022-11-12T17:27:32.834Z,14.80
2022-11-12T17:32:34.259Z,14.80
2022-11-12T17:37:35.691Z,14.25
2022-11-12T17:42:37.244Z,15.68
2022-11-12T17:47:40.621Z,14.20
2022-11-12T17:52:42.232Z,15.30
2022-11-12T17:57:43.724Z,13.73
2022-11-12T18:02:45.273Z,14.13
2022-11-12T18:07:46.734Z,14.43
2022-11-12T18:12:50.586Z,12.70
2022-11-12T18:17:52.273Z,15.75
2022-11-12T18:22:53.639Z,13.75
2022-11-12T18:27:55.236Z,14.32
2022-11-12T18:32:56.756Z,14.65
2022-11-12T18:37:58.622Z,14.65
2022-11-12T18:43:00.258Z,15.05
2022-11-12T18:48:01.893Z,16.00
2022-11-12T18:53:03.328Z,16.27
2022-11-12T18:58:07.841Z,15.73
2022-11-12T19:03:16.102Z,15.10
2022-11-12T19:08:19.402Z,13.85
2022-11-12T19:13:21.248Z,15.80
2022-11-12T19:18:22.620Z,16.33
2022-11-12T19:23:24.167Z,26.70
2022-11-12T19:28:25.946Z,18.60
2022-11-12T19:33:27.570Z,16.27
2022-11-12T19:38:29.730Z,15.27
2022-11-12T19:43:31.646Z,15.07
2022-11-12T19:48:33.412Z,14.30
2022-11-12T19:53:40.963Z,14.77
2022-11-12T19:58:46.161Z,15.73
2022-11-12T20:03:47.678Z,15.98
2022-11-12T20:08:51.834Z,14.68
2022-11-12T20:13:53.950Z,15.70
2022-11-12T20:18:55.878Z,14.07
2022-11-12T20:23:57.598Z,16.13
2022-11-12T20:28:58.996Z,15.15
2022-11-12T20:34:01.467Z,15.38
2022-11-12T20:39:03.145Z,14.45
2022-11-12T20:44:04.728Z,12.52
2022-11-12T20:49:08.553Z,13.35
2022-11-12T20:54:10.667Z,13.13
2022-11-12T20:59:12.110Z,14.20
2022-11-12T21:04:13.693Z,13.90
2022-11-12T21:09:15.090Z,12.43
2022-11-12T21:14:16.667Z,12.57
2022-11-12T21:19:20.073Z,13.02
2022-11-12T21:24:21.449Z,13.50
2022-11-12T21:29:22.887Z,12.05
2022-11-12T21:34:24.354Z,12.00
2022-11-12T21:39:25.738Z,12.43
2022-11-12T21:44:27.181Z,13.45
2022-11-12T21:49:28.564Z,12.57
2022-11-12T21:54:30.007Z,12.35
2022-11-12T21:59:31.492Z,14.52
2022-11-12T22:04:32.948Z,13.63
2022-11-12T22:09:34.371Z,13.27
2022-11-12T22:14:35.798Z,14.27
2022-11-12T22:19:39.187Z,14.30
2022-11-12T22:24:40.588Z,13.75
2022-11-12T22:29:42.361Z,13.40
2022-11-12T22:34:48.324Z,13.45
2022-11-12T22:39:51.078Z,14.20
2022-11-12T22:44:52.842Z,14.35
2022-11-12T22:49:57.203Z,14.52
2022-11-12T22:55:02.024Z,13.80
2022-11-12T23:00:07.058Z,14.38
2022-11-12T23:05:08.730Z,14.10
2022-11-12T23:10:10.117Z,13.77
2022-11-12T23:15:15.245Z,14.10
2022-11-12T23:20:34.768Z,13.18
2022-11-12T23:25:36.635Z,14.57
2022-11-12T23:30:38.113Z,13.30
2022-11-12T23:35:39.481Z,13.18
2022-11-12T23:40:40.959Z,15.20
2022-11-12T23:45:48.733Z,14.70
2022-11-12T23:50:59.951Z,14.18
2022-11-12T23:56:04.425Z,14.55
